sensor_id;sensor_type;location;lat;lon;timestamp;P1;durP1;ratioP1;P2;durP2;ratioP2
20671;SDS011;10495;50.922;4.760;2023-03-20T00:00:30;7.80;;;5.37;;
20671;SDS011;10495;50.922;4.760;2023-03-20T00:02:58;8.67;;;6.23;;
20671;SDS011;10495;50.922;4.760;2023-03-20T00:05:24;10.37;;;7.10;;
20671;SDS011;10495;50.922;4.760;2023-03-20T00:07:52;10.43;;;6.20;;
20671;SDS011;10495;50.922;4.760;2023-03-20T00:10:19;10.17;;;6.83;;
20671;SDS011;10495;50.922;4.760;2023-03-20T00:12:47;11.33;;;6.57;;
20671;SDS011;10495;50.922;4.760;2023-03-20T00:15:35;8.63;;;5.70;;
20671;SDS011;10495;50.922;4.760;2023-03-20T00:18:08;10.20;;;6.37;;
20671;SDS011;10495;50.922;4.760;2023-03-20T00:20:42;11.70;;;6.80;;
20671;SDS011;10495;50.922;4.760;2023-03-20T00:23:11;10.43;;;6.43;;
20671;SDS011;10495;50.922;4.760;2023-03-20T00:25:37;10.83;;;6.53;;
20671;SDS011;10495;50.922;4.760;2023-03-20T00:31:13;11.53;;;6.20;;
20671;SDS011;10495;50.922;4.760;2023-03-20T00:33:45;10.50;;;6.23;;
20671;SDS011;10495;50.922;4.760;2023-03-20T00:36:10;9.80;;;7.03;;
20671;SDS011;10495;50.922;4.760;2023-03-20T00:38:36;10.33;;;6.20;;
20671;SDS011;10495;50.922;4.760;2023-03-20T00:41:01;10.13;;;6.63;;
20671;SDS011;10495;50.922;4.760;2023-03-20T00:43:36;12.20;;;6.37;;
20671;SDS011;10495;50.922;4.760;2023-03-20T00:46:02;15.20;;;7.73;;
20671;SDS011;10495;50.922;4.760;2023-03-20T00:48:28;13.83;;;6.80;;
20671;SDS011;10495;50.922;4.760;2023-03-20T00:50:54;13.63;;;6.73;;
20671;SDS011;10495;50.922;4.760;2023-03-20T00:53:19;10.73;;;6.43;;
20671;SDS011;10495;50.922;4.760;2023-03-20T00:55:45;13.63;;;6.90;;
20671;SDS011;10495;50.922;4.760;2023-03-20T00:58:10;12.47;;;7.33;;
20671;SDS011;10495;50.922;4.760;2023-03-20T01:03:10;10.50;;;7.23;;
20671;SDS011;10495;50.922;4.760;2023-03-20T01:05:41;10.77;;;6.87;;
20671;SDS011;10495;50.922;4.760;2023-03-20T01:08:16;11.80;;;7.30;;
20671;SDS011;10495;50.922;4.760;2023-03-20T01:10:44;13.43;;;6.83;;
20671;SDS011;10495;50.922;4.760;2023-03-20T01:13:14;10.00;;;6.53;;
20671;SDS011;10495;50.922;4.760;2023-03-20T01:15:45;9.67;;;6.50;;
20671;SDS011;10495;50.922;4.760;2023-03-20T01:18:12;12.63;;;7.73;;
20671;SDS011;10495;50.922;4.760;2023-03-20T01:20:39;9.03;;;6.37;;
20671;SDS011;10495;50.922;4.760;2023-03-20T01:23:05;13.17;;;7.57;;
20671;SDS011;10495;50.922;4.760;2023-03-20T01:25:30;12.53;;;7.50;;
20671;SDS011;10495;50.922;4.760;2023-03-20T01:27:56;13.50;;;7.47;;
20671;SDS011;10495;50.922;4.760;2023-03-20T01:30:25;13.07;;;7.17;;
20671;SDS011;10495;50.922;4.760;2023-03-20T01:32:53;10.07;;;6.90;;
20671;SDS011;10495;50.922;4.760;2023-03-20T01:35:20;13.13;;;7.47;;
20671;SDS011;10495;50.922;4.760;2023-03-20T01:37:49;11.77;;;6.50;;
20671;SDS011;10495;50.922;4.760;2023-03-20T01:42:52;13.27;;;7.30;;
20671;SDS011;10495;50.922;4.760;2023-03-20T01:45:19;11.47;;;6.50;;
20671;SDS011;10495;50.922;4.760;2023-03-20T01:47:47;11.17;;;7.03;;
20671;SDS011;10495;50.922;4.760;2023-03-20T01:52:59;12.40;;;7.07;;
20671;SDS011;10495;50.922;4.760;2023-03-20T01:55:37;12.63;;;6.73;;
20671;SDS011;10495;50.922;4.760;2023-03-20T01:58:07;9.37;;;6.87;;
20671;SDS011;10495;50.922;4.760;2023-03-20T02:00:37;18.80;;;9.17;;
20671;SDS011;10495;50.922;4.760;2023-03-20T02:03:03;11.93;;;7.13;;
20671;SDS011;10495;50.922;4.760;2023-03-20T02:05:31;11.00;;;6.93;;
20671;SDS011;10495;50.922;4.760;2023-03-20T02:08:22;11.37;;;6.33;;
20671;SDS011;10495;50.922;4.760;2023-03-20T02:10:54;9.70;;;6.77;;
20671;SDS011;10495;50.922;4.760;2023-03-20T02:13:21;15.23;;;7.20;;
20671;SDS011;10495;50.922;4.760;2023-03-20T02:15:55;15.33;;;8.00;;
20671;SDS011;10495;50.922;4.760;2023-03-20T02:18:22;14.10;;;7.93;;
20671;SDS011;10495;50.922;4.760;2023-03-20T02:46:22;14.37;;;8.53;;
20671;SDS011;10495;50.922;4.760;2023-03-20T02:49:02;17.97;;;8.80;;
20671;SDS011;10495;50.922;4.760;2023-03-20T02:51:59;15.50;;;8.23;;
20671;SDS011;10495;50.922;4.760;2023-03-20T02:57:10;19.27;;;9.60;;
20671;SDS011;10495;50.922;4.760;2023-03-20T03:00:32;15.23;;;8.33;;
20671;SDS011;10495;50.922;4.760;2023-03-20T03:02:51;14.60;;;8.93;;
20671;SDS011;10495;50.922;4.760;2023-03-20T03:05:36;15.93;;;8.87;;
20671;SDS011;10495;50.922;4.760;2023-03-20T03:08:08;16.67;;;9.17;;
20671;SDS011;10495;50.922;4.760;2023-03-20T03:10:40;17.27;;;9.70;;
20671;SDS011;10495;50.922;4.760;2023-03-20T03:13:12;16.83;;;9.73;;
20671;SDS011;10495;50.922;4.760;2023-03-20T03:15:43;18.50;;;9.63;;
20671;SDS011;10495;50.922;4.760;2023-03-20T03:18:14;19.33;;;10.00;;
20671;SDS011;10495;50.922;4.760;2023-03-20T03:20:45;16.20;;;9.30;;
20671;SDS011;10495;50.922;4.760;2023-03-20T03:23:19;17.40;;;9.73;;
20671;SDS011;10495;50.922;4.760;2023-03-20T03:25:58;14.30;;;8.80;;
20671;SDS011;10495;50.922;4.760;2023-03-20T03:28:42;23.13;;;10.03;;
20671;SDS011;10495;50.922;4.760;2023-03-20T03:31:11;19.03;;;9.90;;
20671;SDS011;10495;50.922;4.760;2023-03-20T03:33:39;16.00;;;8.93;;
20671;SDS011;10495;50.922;4.760;2023-03-20T03:39:13;16.17;;;9.43;;
20671;SDS011;10495;50.922;4.760;2023-03-20T03:41:44;19.47;;;9.80;;
20671;SDS011;10495;50.922;4.760;2023-03-20T03:44:28;14.87;;;9.03;;
20671;SDS011;10495;50.922;4.760;2023-03-20T03:47:38;17.57;;;10.17;;
20671;SDS011;10495;50.922;4.760;2023-03-20T03:50:09;21.90;;;9.73;;
20671;SDS011;10495;50.922;4.760;2023-03-20T03:52:48;20.23;;;11.03;;
20671;SDS011;10495;50.922;4.760;2023-03-20T03:55:20;17.93;;;9.70;;
20671;SDS011;10495;50.922;4.760;2023-03-20T03:57:59;16.17;;;9.37;;
20671;SDS011;10495;50.922;4.760;2023-03-20T04:00:28;17.93;;;9.90;;
20671;SDS011;10495;50.922;4.760;2023-03-20T04:02:58;20.03;;;10.37;;
20671;SDS011;10495;50.922;4.760;2023-03-20T04:05:24;18.30;;;9.57;;
20671;SDS011;10495;50.922;4.760;2023-03-20T04:07:57;18.57;;;9.53;;
20671;SDS011;10495;50.922;4.760;2023-03-20T04:10:23;18.80;;;9.70;;
20671;SDS011;10495;50.922;4.760;2023-03-20T04:12:49;16.63;;;9.80;;
20671;SDS011;10495;50.922;4.760;2023-03-20T04:15:15;15.37;;;9.77;;
20671;SDS011;10495;50.922;4.760;2023-03-20T04:17:41;22.60;;;11.63;;
20671;SDS011;10495;50.922;4.760;2023-03-20T04:20:08;24.00;;;11.50;;
20671;SDS011;10495;50.922;4.760;2023-03-20T04:22:34;18.30;;;10.77;;
20671;SDS011;10495;50.922;4.760;2023-03-20T04:25:01;16.87;;;10.07;;
20671;SDS011;10495;50.922;4.760;2023-03-20T04:27:28;19.13;;;11.13;;
20671;SDS011;10495;50.922;4.760;2023-03-20T04:29:53;24.80;;;11.63;;
20671;SDS011;10495;50.922;4.760;2023-03-20T04:32:19;20.00;;;11.40;;
20671;SDS011;10495;50.922;4.760;2023-03-20T04:34:45;22.10;;;10.40;;
20671;SDS011;10495;50.922;4.760;2023-03-20T04:37:11;23.33;;;11.73;;
20671;SDS011;10495;50.922;4.760;2023-03-20T04:39:37;22.80;;;12.47;;
20671;SDS011;10495;50.922;4.760;2023-03-20T04:42:03;21.50;;;11.43;;
20671;SDS011;10495;50.922;4.760;2023-03-20T04:44:30;19.93;;;10.87;;
20671;SDS011;10495;50.922;4.760;2023-03-20T04:46:55;20.90;;;10.33;;
20671;SDS011;10495;50.922;4.760;2023-03-20T04:49:21;18.13;;;10.60;;
20671;SDS011;10495;50.922;4.760;2023-03-20T04:51:47;24.70;;;11.13;;
20671;SDS011;10495;50.922;4.760;2023-03-20T04:54:13;21.40;;;11.17;;
20671;SDS011;10495;50.922;4.760;2023-03-20T04:56:38;19.83;;;10.33;;
20671;SDS011;10495;50.922;4.760;2023-03-20T04:59:04;20.10;;;9.77;;
20671;SDS011;10495;50.922;4.760;2023-03-20T05:01:29;20.90;;;10.60;;
20671;SDS011;10495;50.922;4.760;2023-03-20T05:03:55;19.30;;;10.20;;
20671;SDS011;10495;50.922;4.760;2023-03-20T05:06:27;25.53;;;9.97;;
20671;SDS011;10495;50.922;4.760;2023-03-20T05:08:53;20.13;;;8.80;;
20671;SDS011;10495;50.922;4.760;2023-03-20T05:11:18;18.53;;;8.67;;
20671;SDS011;10495;50.922;4.760;2023-03-20T05:13:45;18.23;;;10.10;;
20671;SDS011;10495;50.922;4.760;2023-03-20T05:16:10;18.43;;;9.80;;
20671;SDS011;10495;50.922;4.760;2023-03-20T05:18:36;21.17;;;10.23;;
20671;SDS011;10495;50.922;4.760;2023-03-20T05:21:02;20.47;;;11.23;;
20671;SDS011;10495;50.922;4.760;2023-03-20T05:23:28;22.43;;;10.23;;
20671;SDS011;10495;50.922;4.760;2023-03-20T05:25:54;20.63;;;10.13;;
20671;SDS011;10495;50.922;4.760;2023-03-20T05:28:20;23.97;;;10.27;;
20671;SDS011;10495;50.922;4.760;2023-03-20T05:30:46;26.63;;;10.10;;
20671;SDS011;10495;50.922;4.760;2023-03-20T05:33:12;23.23;;;10.27;;
20671;SDS011;10495;50.922;4.760;2023-03-20T05:35:37;21.47;;;10.67;;
20671;SDS011;10495;50.922;4.760;2023-03-20T05:38:03;18.20;;;10.27;;
20671;SDS011;10495;50.922;4.760;2023-03-20T05:40:29;19.93;;;9.83;;
20671;SDS011;10495;50.922;4.760;2023-03-20T05:42:54;15.73;;;8.83;;
20671;SDS011;10495;50.922;4.760;2023-03-20T05:45:20;16.07;;;9.43;;
20671;SDS011;10495;50.922;4.760;2023-03-20T05:47:46;18.73;;;9.63;;
20671;SDS011;10495;50.922;4.760;2023-03-20T05:50:11;21.83;;;9.10;;
20671;SDS011;10495;50.922;4.760;2023-03-20T05:52:37;21.10;;;9.57;;
20671;SDS011;10495;50.922;4.760;2023-03-20T05:55:03;22.43;;;9.00;;
20671;SDS011;10495;50.922;4.760;2023-03-20T05:57:29;21.27;;;9.97;;
20671;SDS011;10495;50.922;4.760;2023-03-20T05:59:55;18.27;;;9.83;;
20671;SDS011;10495;50.922;4.760;2023-03-20T06:02:21;16.93;;;7.67;;
20671;SDS011;10495;50.922;4.760;2023-03-20T06:04:47;15.90;;;8.77;;
20671;SDS011;10495;50.922;4.760;2023-03-20T06:07:12;19.23;;;8.70;;
20671;SDS011;10495;50.922;4.760;2023-03-20T06:09:38;17.37;;;8.43;;
20671;SDS011;10495;50.922;4.760;2023-03-20T06:12:04;13.93;;;7.93;;
20671;SDS011;10495;50.922;4.760;2023-03-20T06:14:29;18.47;;;9.03;;
20671;SDS011;10495;50.922;4.760;2023-03-20T06:16:55;14.93;;;7.37;;
20671;SDS011;10495;50.922;4.760;2023-03-20T06:19:21;18.47;;;8.13;;
20671;SDS011;10495;50.922;4.760;2023-03-20T06:21:47;18.40;;;7.97;;
20671;SDS011;10495;50.922;4.760;2023-03-20T06:24:14;19.33;;;7.87;;
20671;SDS011;10495;50.922;4.760;2023-03-20T06:26:40;16.63;;;8.07;;
20671;SDS011;10495;50.922;4.760;2023-03-20T06:29:05;17.53;;;7.87;;
20671;SDS011;10495;50.922;4.760;2023-03-20T06:31:31;15.97;;;7.60;;
20671;SDS011;10495;50.922;4.760;2023-03-20T06:33:57;15.53;;;8.03;;
20671;SDS011;10495;50.922;4.760;2023-03-20T06:36:22;16.10;;;8.37;;
20671;SDS011;10495;50.922;4.760;2023-03-20T06:38:48;16.87;;;7.87;;
20671;SDS011;10495;50.922;4.760;2023-03-20T06:41:14;17.63;;;7.17;;
20671;SDS011;10495;50.922;4.760;2023-03-20T06:43:40;18.53;;;8.07;;
20671;SDS011;10495;50.922;4.760;2023-03-20T06:46:07;13.90;;;7.27;;
20671;SDS011;10495;50.922;4.760;2023-03-20T06:48:33;13.90;;;7.20;;
20671;SDS011;10495;50.922;4.760;2023-03-20T06:50:58;17.50;;;7.90;;
20671;SDS011;10495;50.922;4.760;2023-03-20T06:53:24;14.07;;;7.23;;
20671;SDS011;10495;50.922;4.760;2023-03-20T06:55:51;17.98;;;9.32;;
20671;SDS011;10495;50.922;4.760;2023-03-20T06:58:16;18.13;;;8.30;;
20671;SDS011;10495;50.922;4.760;2023-03-20T07:00:42;16.30;;;8.37;;
20671;SDS011;10495;50.922;4.760;2023-03-20T07:03:09;16.77;;;7.03;;
20671;SDS011;10495;50.922;4.760;2023-03-20T07:05:35;17.27;;;6.83;;
20671;SDS011;10495;50.922;4.760;2023-03-20T07:08:02;17.80;;;7.90;;
20671;SDS011;10495;50.922;4.760;2023-03-20T07:10:28;15.37;;;7.63;;
20671;SDS011;10495;50.922;4.760;2023-03-20T07:12:54;13.93;;;6.97;;
20671;SDS011;10495;50.922;4.760;2023-03-20T07:15:20;17.97;;;7.00;;
20671;SDS011;10495;50.922;4.760;2023-03-20T07:17:46;11.07;;;6.03;;
20671;SDS011;10495;50.922;4.760;2023-03-20T07:20:12;14.70;;;6.03;;
20671;SDS011;10495;50.922;4.760;2023-03-20T07:22:38;14.77;;;6.23;;
20671;SDS011;10495;50.922;4.760;2023-03-20T07:25:05;12.70;;;6.13;;
20671;SDS011;10495;50.922;4.760;2023-03-20T07:27:32;18.17;;;6.63;;
20671;SDS011;10495;50.922;4.760;2023-03-20T07:29:57;15.17;;;6.87;;
20671;SDS011;10495;50.922;4.760;2023-03-20T07:32:23;14.77;;;7.53;;
20671;SDS011;10495;50.922;4.760;2023-03-20T07:34:49;16.23;;;6.07;;
20671;SDS011;10495;50.922;4.760;2023-03-20T07:37:15;12.63;;;5.73;;
20671;SDS011;10495;50.922;4.760;2023-03-20T07:39:41;14.03;;;6.27;;
20671;SDS011;10495;50.922;4.760;2023-03-20T07:42:06;15.20;;;6.77;;
20671;SDS011;10495;50.922;4.760;2023-03-20T07:44:32;15.90;;;6.13;;
20671;SDS011;10495;50.922;4.760;2023-03-20T07:46:58;17.20;;;6.47;;
20671;SDS011;10495;50.922;4.760;2023-03-20T07:49:23;14.17;;;6.23;;
20671;SDS011;10495;50.922;4.760;2023-03-20T07:51:50;17.57;;;6.37;;
20671;SDS011;10495;50.922;4.760;2023-03-20T07:54:16;13.47;;;5.90;;
20671;SDS011;10495;50.922;4.760;2023-03-20T07:56:41;12.60;;;5.53;;
20671;SDS011;10495;50.922;4.760;2023-03-20T07:59:07;13.87;;;6.17;;
20671;SDS011;10495;50.922;4.760;2023-03-20T08:01:33;13.80;;;5.23;;
20671;SDS011;10495;50.922;4.760;2023-03-20T08:03:59;13.37;;;5.83;;
20671;SDS011;10495;50.922;4.760;2023-03-20T08:06:25;15.10;;;5.67;;
20671;SDS011;10495;50.922;4.760;2023-03-20T08:08:50;11.40;;;5.47;;
20671;SDS011;10495;50.922;4.760;2023-03-20T08:11:16;15.27;;;4.73;;
20671;SDS011;10495;50.922;4.760;2023-03-20T08:13:43;19.40;;;5.00;;
20671;SDS011;10495;50.922;4.760;2023-03-20T08:16:09;13.27;;;5.23;;
20671;SDS011;10495;50.922;4.760;2023-03-20T08:18:35;11.07;;;4.73;;
20671;SDS011;10495;50.922;4.760;2023-03-20T08:21:01;10.90;;;4.57;;
20671;SDS011;10495;50.922;4.760;2023-03-20T08:23:27;11.53;;;3.97;;
20671;SDS011;10495;50.922;4.760;2023-03-20T08:25:52;12.97;;;5.23;;
20671;SDS011;10495;50.922;4.760;2023-03-20T08:28:18;12.07;;;4.23;;
20671;SDS011;10495;50.922;4.760;2023-03-20T08:30:44;15.43;;;4.80;;
20671;SDS011;10495;50.922;4.760;2023-03-20T08:33:10;13.13;;;4.70;;
20671;SDS011;10495;50.922;4.760;2023-03-20T08:35:36;9.50;;;4.10;;
20671;SDS011;10495;50.922;4.760;2023-03-20T08:38:02;10.10;;;4.27;;
20671;SDS011;10495;50.922;4.760;2023-03-20T08:40:27;12.27;;;4.57;;
20671;SDS011;10495;50.922;4.760;2023-03-20T08:42:54;13.20;;;4.03;;
20671;SDS011;10495;50.922;4.760;2023-03-20T08:45:20;14.57;;;4.50;;
20671;SDS011;10495;50.922;4.760;2023-03-20T08:47:48;9.97;;;4.70;;
20671;SDS011;10495;50.922;4.760;2023-03-20T08:50:14;7.87;;;4.07;;
20671;SDS011;10495;50.922;4.760;2023-03-20T08:52:40;12.00;;;5.20;;
20671;SDS011;10495;50.922;4.760;2023-03-20T08:55:08;12.00;;;4.40;;
20671;SDS011;10495;50.922;4.760;2023-03-20T08:57:35;12.00;;;4.97;;
20671;SDS011;10495;50.922;4.760;2023-03-20T09:00:02;13.47;;;3.90;;
20671;SDS011;10495;50.922;4.760;2023-03-20T09:02:28;10.17;;;4.33;;
20671;SDS011;10495;50.922;4.760;2023-03-20T09:04:54;14.67;;;4.57;;
20671;SDS011;10495;50.922;4.760;2023-03-20T09:07:20;9.93;;;4.40;;
20671;SDS011;10495;50.922;4.760;2023-03-20T09:09:46;12.13;;;5.87;;
20671;SDS011;10495;50.922;4.760;2023-03-20T09:12:11;12.73;;;4.53;;
20671;SDS011;10495;50.922;4.760;2023-03-20T09:14:37;13.83;;;4.63;;
20671;SDS011;10495;50.922;4.760;2023-03-20T09:17:03;7.80;;;3.50;;
20671;SDS011;10495;50.922;4.760;2023-03-20T09:19:30;11.43;;;3.90;;
20671;SDS011;10495;50.922;4.760;2023-03-20T09:21:56;9.20;;;3.20;;
20671;SDS011;10495;50.922;4.760;2023-03-20T09:24:21;6.20;;;3.63;;
20671;SDS011;10495;50.922;4.760;2023-03-20T09:26:48;12.07;;;3.60;;
20671;SDS011;10495;50.922;4.760;2023-03-20T09:29:13;10.17;;;3.60;;
20671;SDS011;10495;50.922;4.760;2023-03-20T09:53:24;8.90;;;4.00;;
20671;SDS011;10495;50.922;4.760;2023-03-20T09:56:00;8.40;;;4.07;;
20671;SDS011;10495;50.922;4.760;2023-03-20T09:58:54;12.77;;;4.17;;
20671;SDS011;10495;50.922;4.760;2023-03-20T10:01:23;11.20;;;4.13;;
20671;SDS011;10495;50.922;4.760;2023-03-20T10:04:11;8.43;;;3.53;;
20671;SDS011;10495;50.922;4.760;2023-03-20T10:06:37;11.67;;;4.57;;
20671;SDS011;10495;50.922;4.760;2023-03-20T10:09:11;9.17;;;3.53;;
20671;SDS011;10495;50.922;4.760;2023-03-20T10:19:35;12.47;;;4.43;;
20671;SDS011;10495;50.922;4.760;2023-03-20T10:27:43;12.50;;;5.07;;
20671;SDS011;10495;50.922;4.760;2023-03-20T10:36:01;10.03;;;3.97;;
20671;SDS011;10495;50.922;4.760;2023-03-20T10:41:08;11.30;;;4.47;;
20671;SDS011;10495;50.922;4.760;2023-03-20T10:43:39;8.10;;;4.33;;
20671;SDS011;10495;50.922;4.760;2023-03-20T10:46:12;13.73;;;4.63;;
20671;SDS011;10495;50.922;4.760;2023-03-20T10:48:56;13.77;;;4.87;;
20671;SDS011;10495;50.922;4.760;2023-03-20T10:51:37;11.87;;;3.83;;
20671;SDS011;10495;50.922;4.760;2023-03-20T10:54:04;11.97;;;4.07;;
20671;SDS011;10495;50.922;4.760;2023-03-20T10:56:39;15.03;;;4.87;;
20671;SDS011;10495;50.922;4.760;2023-03-20T10:59:14;10.60;;;4.10;;
20671;SDS011;10495;50.922;4.760;2023-03-20T11:01:42;13.30;;;4.70;;
20671;SDS011;10495;50.922;4.760;2023-03-20T11:04:08;10.37;;;3.80;;
20671;SDS011;10495;50.922;4.760;2023-03-20T11:06:37;9.93;;;4.27;;
20671;SDS011;10495;50.922;4.760;2023-03-20T11:09:14;11.00;;;4.07;;
20671;SDS011;10495;50.922;4.760;2023-03-20T11:11:45;14.10;;;3.87;;
20671;SDS011;10495;50.922;4.760;2023-03-20T11:14:16;9.63;;;4.13;;
20671;SDS011;10495;50.922;4.760;2023-03-20T11:16:47;8.10;;;3.73;;
20671;SDS011;10495;50.922;4.760;2023-03-20T11:19:15;10.07;;;3.77;;
20671;SDS011;10495;50.922;4.760;2023-03-20T11:21:46;12.97;;;4.23;;
20671;SDS011;10495;50.922;4.760;2023-03-20T11:27:05;8.17;;;3.43;;
20671;SDS011;10495;50.922;4.760;2023-03-20T11:29:34;5.27;;;3.03;;
20671;SDS011;10495;50.922;4.760;2023-03-20T11:32:14;8.90;;;4.23;;
20671;SDS011;10495;50.922;4.760;2023-03-20T11:34:51;8.80;;;3.87;;
20671;SDS011;10495;50.922;4.760;2023-03-20T11:37:25;10.80;;;3.90;;
20671;SDS011;10495;50.922;4.760;2023-03-20T11:42:31;14.90;;;3.57;;
20671;SDS011;10495;50.922;4.760;2023-03-20T11:45:32;15.23;;;3.90;;
20671;SDS011;10495;50.922;4.760;2023-03-20T11:47:50;13.03;;;4.03;;
20671;SDS011;10495;50.922;4.760;2023-03-20T11:50:29;8.80;;;3.33;;
20671;SDS011;10495;50.922;4.760;2023-03-20T11:52:55;8.90;;;3.30;;
20671;SDS011;10495;50.922;4.760;2023-03-20T11:55:32;9.03;;;3.17;;
20671;SDS011;10495;50.922;4.760;2023-03-20T11:58:00;12.73;;;3.63;;
20671;SDS011;10495;50.922;4.760;2023-03-20T12:00:36;9.13;;;3.40;;
20671;SDS011;10495;50.922;4.760;2023-03-20T12:03:14;10.40;;;3.43;;
20671;SDS011;10495;50.922;4.760;2023-03-20T12:05:59;7.83;;;3.07;;
20671;SDS011;10495;50.922;4.760;2023-03-20T12:08:25;6.57;;;2.93;;
20671;SDS011;10495;50.922;4.760;2023-03-20T12:10:58;9.77;;;3.17;;
20671;SDS011;10495;50.922;4.760;2023-03-20T12:13:42;8.73;;;3.20;;
20671;SDS011;10495;50.922;4.760;2023-03-20T12:16:12;9.77;;;3.20;;
20671;SDS011;10495;50.922;4.760;2023-03-20T12:18:51;10.57;;;3.40;;
20671;SDS011;10495;50.922;4.760;2023-03-20T12:24:04;10.27;;;4.17;;
20671;SDS011;10495;50.922;4.760;2023-03-20T12:30:00;10.77;;;3.87;;
20671;SDS011;10495;50.922;4.760;2023-03-20T12:37:43;8.70;;;3.10;;
20671;SDS011;10495;50.922;4.760;2023-03-20T12:40:14;7.00;;;3.30;;
20671;SDS011;10495;50.922;4.760;2023-03-20T12:42:54;9.67;;;4.37;;
20671;SDS011;10495;50.922;4.760;2023-03-20T12:45:59;8.20;;;3.60;;
20671;SDS011;10495;50.922;4.760;2023-03-20T12:51:56;11.87;;;4.00;;
20671;SDS011;10495;50.922;4.760;2023-03-20T12:57:21;8.33;;;3.60;;
20671;SDS011;10495;50.922;4.760;2023-03-20T13:14:18;11.37;;;3.73;;
20671;SDS011;10495;50.922;4.760;2023-03-20T13:19:35;5.80;;;3.10;;
20671;SDS011;10495;50.922;4.760;2023-03-20T13:22:31;11.50;;;4.20;;
20671;SDS011;10495;50.922;4.760;2023-03-20T13:25:11;7.30;;;3.43;;
20671;SDS011;10495;50.922;4.760;2023-03-20T13:27:44;6.20;;;3.33;;
20671;SDS011;10495;50.922;4.760;2023-03-20T13:30:30;7.10;;;3.33;;
20671;SDS011;10495;50.922;4.760;2023-03-20T13:35:53;10.00;;;4.33;;
20671;SDS011;10495;50.922;4.760;2023-03-20T13:38:27;8.30;;;3.70;;
20671;SDS011;10495;50.922;4.760;2023-03-20T13:40:59;9.50;;;3.63;;
20671;SDS011;10495;50.922;4.760;2023-03-20T13:43:28;12.33;;;3.53;;
20671;SDS011;10495;50.922;4.760;2023-03-20T13:46:02;15.77;;;4.60;;
20671;SDS011;10495;50.922;4.760;2023-03-20T13:48:42;6.77;;;3.37;;
20671;SDS011;10495;50.922;4.760;2023-03-20T13:59:28;5.43;;;3.67;;
20671;SDS011;10495;50.922;4.760;2023-03-20T14:02:19;11.80;;;3.90;;
20671;SDS011;10495;50.922;4.760;2023-03-20T14:05:00;12.13;;;4.13;;
20671;SDS011;10495;50.922;4.760;2023-03-20T14:07:36;13.87;;;4.27;;
20671;SDS011;10495;50.922;4.760;2023-03-20T14:13:10;9.20;;;3.80;;
20671;SDS011;10495;50.922;4.760;2023-03-20T14:15:44;11.53;;;4.73;;
20671;SDS011;10495;50.922;4.760;2023-03-20T14:18:16;14.80;;;4.37;;
20671;SDS011;10495;50.922;4.760;2023-03-20T14:20:49;12.97;;;4.00;;
20671;SDS011;10495;50.922;4.760;2023-03-20T14:23:20;8.20;;;4.60;;
20671;SDS011;10495;50.922;4.760;2023-03-20T14:25:57;10.03;;;4.63;;
20671;SDS011;10495;50.922;4.760;2023-03-20T14:30:54;13.47;;;4.60;;
20671;SDS011;10495;50.922;4.760;2023-03-20T14:33:41;12.67;;;4.70;;
20671;SDS011;10495;50.922;4.760;2023-03-20T14:36:15;8.93;;;5.00;;
20671;SDS011;10495;50.922;4.760;2023-03-20T14:41:38;9.80;;;5.03;;
20671;SDS011;10495;50.922;4.760;2023-03-20T14:44:21;9.80;;;6.10;;
20671;SDS011;10495;50.922;4.760;2023-03-20T14:47:25;17.73;;;5.40;;
20671;SDS011;10495;50.922;4.760;2023-03-20T14:57:44;8.00;;;4.73;;
20671;SDS011;10495;50.922;4.760;2023-03-20T15:00:20;10.30;;;4.90;;
20671;SDS011;10495;50.922;4.760;2023-03-20T15:02:49;14.10;;;5.00;;
20671;SDS011;10495;50.922;4.760;2023-03-20T15:05:25;12.00;;;5.33;;
20671;SDS011;10495;50.922;4.760;2023-03-20T15:07:57;11.97;;;5.97;;
20671;SDS011;10495;50.922;4.760;2023-03-20T15:10:50;14.93;;;5.50;;
20671;SDS011;10495;50.922;4.760;2023-03-20T15:13:19;15.13;;;5.70;;
20671;SDS011;10495;50.922;4.760;2023-03-20T15:18:51;13.33;;;6.23;;
20671;SDS011;10495;50.922;4.760;2023-03-20T15:21:19;13.77;;;5.87;;
20671;SDS011;10495;50.922;4.760;2023-03-20T15:24:18;15.00;;;6.00;;
20671;SDS011;10495;50.922;4.760;2023-03-20T15:27:21;10.50;;;5.33;;
20671;SDS011;10495;50.922;4.760;2023-03-20T15:29:41;12.47;;;5.70;;
20671;SDS011;10495;50.922;4.760;2023-03-20T15:32:13;14.90;;;6.57;;
20671;SDS011;10495;50.922;4.760;2023-03-20T15:34:38;11.80;;;6.60;;
20671;SDS011;10495;50.922;4.760;2023-03-20T15:37:06;15.40;;;7.10;;
20671;SDS011;10495;50.922;4.760;2023-03-20T15:39:42;18.10;;;7.10;;
20671;SDS011;10495;50.922;4.760;2023-03-20T15:42:12;12.87;;;6.00;;
20671;SDS011;10495;50.922;4.760;2023-03-20T15:44:40;15.13;;;6.60;;
20671;SDS011;10495;50.922;4.760;2023-03-20T15:49:40;9.90;;;6.03;;
20671;SDS011;10495;50.922;4.760;2023-03-20T15:52:20;16.03;;;8.17;;
20671;SDS011;10495;50.922;4.760;2023-03-20T15:54:57;17.50;;;7.00;;
20671;SDS011;10495;50.922;4.760;2023-03-20T15:59:58;15.43;;;7.50;;
20671;SDS011;10495;50.922;4.760;2023-03-20T16:02:24;12.17;;;7.23;;
20671;SDS011;10495;50.922;4.760;2023-03-20T16:04:52;13.43;;;7.47;;
20671;SDS011;10495;50.922;4.760;2023-03-20T16:07:22;15.73;;;8.07;;
20671;SDS011;10495;50.922;4.760;2023-03-20T16:09:52;11.67;;;7.10;;
20671;SDS011;10495;50.922;4.760;2023-03-20T16:12:18;15.90;;;7.87;;
20671;SDS011;10495;50.922;4.760;2023-03-20T16:14:45;17.17;;;7.50;;
20671;SDS011;10495;50.922;4.760;2023-03-20T16:17:12;14.43;;;7.57;;
20671;SDS011;10495;50.922;4.760;2023-03-20T16:19:39;16.87;;;7.23;;
20671;SDS011;10495;50.922;4.760;2023-03-20T16:22:22;12.10;;;8.00;;
20671;SDS011;10495;50.922;4.760;2023-03-20T16:24:53;12.23;;;7.57;;
20671;SDS011;10495;50.922;4.760;2023-03-20T16:27:24;19.03;;;8.13;;
20671;SDS011;10495;50.922;4.760;2023-03-20T16:29:57;19.83;;;8.47;;
20671;SDS011;10495;50.922;4.760;2023-03-20T16:32:38;17.97;;;8.63;;
20671;SDS011;10495;50.922;4.760;2023-03-20T16:35:18;14.23;;;7.80;;
20671;SDS011;10495;50.922;4.760;2023-03-20T16:37:59;12.10;;;7.43;;
20671;SDS011;10495;50.922;4.760;2023-03-20T16:42:52;13.87;;;7.40;;
20671;SDS011;10495;50.922;4.760;2023-03-20T16:45:30;10.90;;;7.20;;
20671;SDS011;10495;50.922;4.760;2023-03-20T16:50:37;14.17;;;7.10;;
20671;SDS011;10495;50.922;4.760;2023-03-20T16:53:08;12.33;;;7.30;;
20671;SDS011;10495;50.922;4.760;2023-03-20T16:55:36;13.77;;;7.43;;
20671;SDS011;10495;50.922;4.760;2023-03-20T16:58:08;16.53;;;6.23;;
20671;SDS011;10495;50.922;4.760;2023-03-20T17:00:45;14.73;;;6.60;;
20671;SDS011;10495;50.922;4.760;2023-03-20T17:05:45;10.00;;;6.93;;
20671;SDS011;10495;50.922;4.760;2023-03-20T17:08:14;12.20;;;7.53;;
20671;SDS011;10495;50.922;4.760;2023-03-20T17:10:48;10.30;;;6.53;;
20671;SDS011;10495;50.922;4.760;2023-03-20T17:13:17;15.17;;;6.47;;
20671;SDS011;10495;50.922;4.760;2023-03-20T17:15:43;15.03;;;7.07;;
20671;SDS011;10495;50.922;4.760;2023-03-20T17:18:10;13.57;;;6.37;;
20671;SDS011;10495;50.922;4.760;2023-03-20T17:20:38;17.97;;;7.17;;
20671;SDS011;10495;50.922;4.760;2023-03-20T17:23:05;11.07;;;6.40;;
20671;SDS011;10495;50.922;4.760;2023-03-20T17:25:41;12.67;;;7.03;;
20671;SDS011;10495;50.922;4.760;2023-03-20T17:28:10;11.00;;;6.57;;
20671;SDS011;10495;50.922;4.760;2023-03-20T17:30:48;15.30;;;6.80;;
20671;SDS011;10495;50.922;4.760;2023-03-20T17:33:15;16.27;;;6.60;;
20671;SDS011;10495;50.922;4.760;2023-03-20T17:35:43;11.50;;;6.20;;
20671;SDS011;10495;50.922;4.760;2023-03-20T17:38:16;9.83;;;5.87;;
20671;SDS011;10495;50.922;4.760;2023-03-20T17:40:45;10.70;;;6.33;;
20671;SDS011;10495;50.922;4.760;2023-03-20T17:43:12;23.47;;;8.93;;